Time;durP1;ratioP1;P1;durP2;ratioP2;P2;SDS_P1;SDS_P2;PMS_P1;PMS_P2;Temp;Humidity;BMP_temperature;BMP_pressure;BME280_temperature;BME280_humidity;BME280_pressure;Samples;Min_cycle;Max_cycle;Signal;HPM_P1;HPM_P2
2023/08/26 00:00:19;;;;;;;6.90;4.63;;;;;;;20.54;64.66;96435.41;5053184;28;20053;-69
2023/08/26 00:02:46;;;;;;;6.10;4.68;;;;;;;20.50;64.93;96431.28;5053222;28;20052;-69
2023/08/26 00:05:14;;;;;;;5.25;4.78;;;;;;;20.43;65.03;96428.28;5053275;28;20136;-69
2023/08/26 00:07:41;;;;;;;5.55;4.40;;;;;;;20.39;65.10;96424.19;5053243;28;20045;-69
2023/08/26 00:10:10;;;;;;;7.25;5.43;;;;;;;20.32;65.05;96429.16;5053192;28;20081;-69
2023/08/26 00:12:37;;;;;;;5.28;4.78;;;;;;;20.36;64.87;96436.88;5053274;28;20099;-69
2023/08/26 00:15:05;;;;;;;7.32;4.80;;;;;;;20.24;64.73;96433.38;5052985;28;20045;-69
2023/08/26 00:17:32;;;;;;;6.40;4.72;;;;;;;20.28;65.44;96433.00;5053030;28;20049;-69
2023/08/26 00:20:00;;;;;;;5.88;5.00;;;;;;;20.18;65.65;96422.28;5052841;28;20077;-69
2023/08/26 00:22:27;;;;;;;6.43;4.93;;;;;;;20.13;65.82;96423.59;5052946;28;20048;-69
2023/08/26 00:24:54;;;;;;;5.28;4.70;;;;;;;20.07;66.12;96425.78;5052960;28;20049;-69
2023/08/26 00:27:23;;;;;;;5.20;4.40;;;;;;;20.01;66.24;96422.75;5052937;28;20099;-69
2023/08/26 00:29:50;;;;;;;5.63;5.03;;;;;;;20.00;66.54;96416.59;5052512;28;20056;-69
2023/08/26 00:32:17;;;;;;;10.30;4.38;;;;;;;20.04;66.70;96422.50;5052837;28;20514;-69
2023/08/26 00:34:44;;;;;;;7.47;5.22;;;;;;;20.07;66.53;96420.47;5052876;28;20056;-69
2023/08/26 00:37:12;;;;;;;6.32;4.80;;;;;;;20.05;66.03;96417.09;5052891;28;20045;-69
2023/08/26 00:39:39;;;;;;;7.30;4.75;;;;;;;20.00;66.22;96421.91;5052718;28;20506;-69
2023/08/26 00:42:07;;;;;;;9.05;5.05;;;;;;;19.97;66.43;96418.63;5052705;28;20491;-69
2023/08/26 00:44:35;;;;;;;5.43;4.88;;;;;;;20.00;66.31;96407.78;5052963;28;20045;-69
2023/08/26 00:47:02;;;;;;;9.27;4.50;;;;;;;19.96;66.24;96415.16;5052712;28;20059;-69
2023/08/26 00:49:30;;;;;;;5.13;4.38;;;;;;;19.92;66.29;96411.03;5052782;28;20053;-69
2023/08/26 00:51:57;;;;;;;7.90;4.35;;;;;;;19.95;66.20;96403.66;5052646;28;20499;-69
2023/08/26 00:54:24;;;;;;;5.40;4.90;;;;;;;19.99;66.66;96404.28;5052571;28;20513;-69
2023/08/26 00:56:52;;;;;;;11.57;5.13;;;;;;;20.04;66.24;96410.09;5052597;28;20558;-69
2023/08/26 00:59:19;;;;;;;6.28;4.78;;;;;;;20.05;66.23;96406.47;5052666;28;20450;-69
2023/08/26 01:01:48;;;;;;;6.60;4.97;;;;;;;20.01;66.43;96412.13;5052830;28;20402;-70
2023/08/26 01:04:16;;;;;;;6.00;4.88;;;;;;;19.99;66.23;96408.75;5052955;28;20080;-69
2023/08/26 01:06:43;;;;;;;6.57;4.85;;;;;;;19.95;66.31;96405.47;5052638;28;20460;-69
2023/08/26 01:09:10;;;;;;;6.28;4.90;;;;;;;19.95;66.70;96401.03;5052432;28;20049;-69
2023/08/26 01:11:47;;;;;;;5.13;4.63;;;;;;;19.91;66.77;96399.56;5052524;28;20107;-69
2023/08/26 01:14:23;;;;;;;6.53;4.50;;;;;;;19.89;66.44;96400.63;5052690;28;20076;-69
2023/08/26 01:16:51;;;;;;;6.85;4.70;;;;;;;19.84;67.00;96395.72;5052836;28;20083;-69
2023/08/26 01:19:31;;;;;;;6.53;5.38;;;;;;;19.67;66.92;96386.41;5052605;28;20131;-69
2023/08/26 01:22:05;;;;;;;7.40;4.32;;;;;;;19.62;67.45;96396.53;5052275;28;20110;-69
2023/08/26 01:24:35;;;;;;;7.13;5.20;;;;;;;19.59;67.67;96402.91;5052411;28;20055;-69
2023/08/26 01:27:03;;;;;;;5.10;4.55;;;;;;;19.59;67.95;96396.78;5052365;28;20041;-69
2023/08/26 01:29:30;;;;;;;4.65;4.13;;;;;;;19.63;67.88;96399.03;5052636;28;20048;-69
2023/08/26 01:32:05;;;;;;;7.13;4.47;;;;;;;19.66;67.58;96392.69;5052230;28;20053;-69
2023/08/26 01:34:35;;;;;;;9.05;4.72;;;;;;;19.60;67.70;96401.13;5052335;28;20049;-69
2023/08/26 01:37:03;;;;;;;7.35;4.68;;;;;;;19.62;67.85;96396.53;5052302;28;20140;-69
2023/08/26 01:39:32;;;;;;;4.97;4.47;;;;;;;19.58;67.86;96395.94;5052263;28;20049;-70
2023/08/26 01:42:02;;;;;;;5.65;4.63;;;;;;;19.54;67.90;96390.00;5055206;28;20053;-70
2023/08/26 01:44:31;;;;;;;5.35;4.68;;;;;;;19.54;67.76;96389.16;5055739;28;20132;-69
2023/08/26 01:46:59;;;;;;;6.40;5.20;;;;;;;19.54;68.33;96386.53;5055727;28;20084;-69
2023/08/26 01:49:26;;;;;;;6.03;5.30;;;;;;;19.47;68.35;96383.47;5055766;28;20107;-69
2023/08/26 01:51:53;;;;;;;7.28;4.90;;;;;;;19.41;68.71;96382.16;5055721;28;20080;-69
2023/08/26 01:54:20;;;;;;;8.35;4.40;;;;;;;19.38;68.75;96369.13;5055626;28;20495;-69
2023/08/26 01:56:47;;;;;;;5.88;4.95;;;;;;;19.39;68.47;96365.50;5055511;28;20057;-69
2023/08/26 01:59:15;;;;;;;5.65;4.68;;;;;;;19.38;68.64;96369.13;5055792;28;20099;-69
2023/08/26 02:01:42;;;;;;;5.05;4.38;;;;;;;19.36;68.63;96367.56;5055513;28;20072;-69
2023/08/26 02:04:09;;;;;;;5.05;4.55;;;;;;;19.37;68.76;96372.75;5055482;28;20051;-69
2023/08/26 02:06:38;;;;;;;5.32;4.53;;;;;;;19.32;68.35;96372.25;5055230;28;20556;-69
2023/08/26 02:09:05;;;;;;;5.75;4.45;;;;;;;19.12;68.60;96385.22;5055315;28;20499;-69
2023/08/26 02:11:32;;;;;;;7.65;4.57;;;;;;;19.06;68.08;96377.69;5055106;28;20049;-69
2023/08/26 02:13:59;;;;;;;4.95;4.50;;;;;;;19.02;68.25;96381.53;5055236;28;20076;-69
2023/08/26 02:16:27;;;;;;;4.57;4.18;;;;;;;19.07;68.16;96376.72;5055027;28;20135;-69
2023/08/26 02:18:55;;;;;;;6.13;4.43;;;;;;;19.15;68.36;96378.84;5055207;28;20067;-69
2023/08/26 02:21:22;;;;;;;6.75;3.70;;;;;;;19.15;68.49;96379.66;5054842;28;20106;-69
2023/08/26 02:23:49;;;;;;;5.85;4.70;;;;;;;19.16;68.59;96376.06;5055386;28;20194;-69
2023/08/26 02:26:16;;;;;;;7.63;4.78;;;;;;;19.14;68.22;96375.34;5055293;28;20506;-69
2023/08/26 02:28:43;;;;;;;5.15;4.55;;;;;;;19.13;68.44;96378.09;5055295;28;20087;-69
2023/08/26 02:31:10;;;;;;;5.38;4.45;;;;;;;19.10;68.24;96386.28;5054854;28;20077;-69
2023/08/26 02:33:38;;;;;;;7.00;4.40;;;;;;;19.10;68.06;96380.97;5054897;28;20081;-69
2023/08/26 02:36:06;;;;;;;7.97;4.22;;;;;;;19.14;67.50;96391.22;5054678;28;20060;-69
2023/08/26 02:38:32;;;;;;;7.45;4.32;;;;;;;19.17;67.65;96374.25;5054865;28;20126;-69
2023/08/26 02:40:59;;;;;;;5.85;4.13;;;;;;;19.16;67.55;96385.81;5054901;28;20376;-69
2023/08/26 02:43:27;;;;;;;6.43;4.35;;;;;;;19.09;67.71;96377.50;5054831;28;20132;-69
2023/08/26 02:45:54;;;;;;;5.45;4.20;;;;;;;19.10;67.93;96381.84;5054688;28;20041;-69
2023/08/26 02:48:21;;;;;;;4.93;4.43;;;;;;;19.08;67.52;96378.44;5054733;28;20518;-69
2023/08/26 02:50:55;;;;;;;5.32;4.05;;;;;;;19.01;67.76;96380.69;5054479;28;20148;-69
2023/08/26 02:53:22;;;;;;;4.35;3.95;;;;;;;19.03;67.74;96383.22;5054498;28;20096;-69
2023/08/26 02:55:49;;;;;;;8.63;4.80;;;;;;;19.03;67.37;96377.94;5054386;28;20041;-69
2023/08/26 02:58:16;;;;;;;4.53;4.10;;;;;;;18.99;67.39;96377.28;5054637;28;20144;-69
2023/08/26 03:00:44;;;;;;;5.05;4.22;;;;;;;18.90;67.48;96384.13;5054300;28;20080;-69
2023/08/26 03:03:11;;;;;;;5.18;4.22;;;;;;;18.81;67.09;96382.16;5054178;28;20099;-69
2023/08/26 03:05:38;;;;;;;6.88;4.78;;;;;;;18.76;67.76;96381.66;5054202;28;20041;-69
2023/08/26 03:08:07;;;;;;;5.15;4.72;;;;;;;18.71;67.85;96378.50;5054257;28;20052;-69
2023/08/26 03:10:34;;;;;;;5.00;4.20;;;;;;;18.67;67.89;96388.50;5054416;28;20077;-69
2023/08/26 03:13:01;;;;;;;6.93;4.13;;;;;;;18.65;68.54;96375.38;5054061;28;20136;-69
2023/08/26 03:15:29;;;;;;;5.65;4.63;;;;;;;18.71;67.93;96386.44;5053954;28;20498;-69
2023/08/26 03:17:56;;;;;;;5.90;4.35;;;;;;;18.71;67.97;96381.16;5053955;28;20049;-69
2023/08/26 03:20:23;;;;;;;7.28;4.25;;;;;;;18.73;67.42;96388.06;5053907;28;20057;-69
2023/08/26 03:22:50;;;;;;;5.00;4.38;;;;;;;18.72;67.58;96386.34;5054183;28;20049;-69
2023/08/26 03:25:19;;;;;;;6.03;4.78;;;;;;;18.74;67.95;96391.53;5053958;28;20085;-69
2023/08/26 03:27:46;;;;;;;4.60;4.20;;;;;;;18.74;67.39;96394.19;5053979;28;20053;-69
2023/08/26 03:30:13;;;;;;;5.25;4.75;;;;;;;18.71;67.75;96391.75;5053793;28;20057;-69
2023/08/26 03:32:40;;;;;;;7.75;4.88;;;;;;;18.71;67.90;96394.41;5053742;28;20080;-69
2023/08/26 03:35:09;;;;;;;4.63;4.15;;;;;;;18.69;67.72;96394.50;5053667;28;20052;-69
2023/08/26 03:37:36;;;;;;;6.00;4.35;;;;;;;18.66;67.47;96397.41;5054024;28;20053;-69
2023/08/26 03:40:06;;;;;;;4.88;4.40;;;;;;;18.67;67.65;96394.63;5053701;28;20072;-69
2023/08/26 03:42:35;;;;;;;6.50;3.95;;;;;;;18.67;67.50;96386.66;5053722;28;20410;-69
2023/08/26 03:45:02;;;;;;;5.15;4.03;;;;;;;18.62;67.98;96391.47;5053581;28;20482;-69
2023/08/26 03:47:29;;;;;;;5.38;4.15;;;;;;;18.60;68.01;96393.38;5053489;28;20060;-69
2023/08/26 03:49:56;;;;;;;5.20;4.55;;;;;;;18.65;67.86;96395.69;5053378;28;20180;-69
2023/08/26 03:52:23;;;;;;;5.90;4.32;;;;;;;18.70;67.61;96393.56;5053396;28;20048;-69
2023/08/26 03:54:50;;;;;;;6.85;4.60;;;;;;;18.71;67.84;96387.31;5053425;28;20045;-69
2023/08/26 03:57:17;;;;;;;6.82;4.88;;;;;;;18.72;67.61;96388.97;5053270;28;20057;-69
2023/08/26 03:59:46;;;;;;;10.80;5.03;;;;;;;18.75;67.62;96390.59;5053386;28;20080;-69
2023/08/26 04:02:14;;;;;;;6.70;4.50;;;;;;;18.76;67.79;96392.28;5053342;28;20041;-69
2023/08/26 04:04:41;;;;;;;6.13;4.78;;;;;;;18.76;67.63;96395.78;5052622;28;20468;-69
2023/08/26 04:07:08;;;;;;;8.95;4.85;;;;;;;18.75;67.94;96388.75;5053091;28;20519;-69
2023/08/26 04:09:35;;;;;;;5.95;4.35;;;;;;;18.82;67.93;96397.13;5053128;28;20179;-69
2023/08/26 04:12:02;;;;;;;6.35;4.72;;;;;;;18.94;67.51;96393.53;5053122;28;20045;-69
2023/08/26 04:14:29;;;;;;;4.90;4.50;;;;;;;19.12;67.53;96397.63;5053130;28;20126;-69
2023/08/26 04:16:58;;;;;;;7.18;4.80;;;;;;;19.36;66.70;96399.38;5053042;28;20053;-69
2023/08/26 04:19:25;;;;;;;5.35;4.30;;;;;;;19.61;66.24;96400.13;5053001;28;20044;-69
2023/08/26 04:21:52;;;;;;;5.38;4.85;;;;;;;19.85;65.66;96400.06;5052771;28;20427;-69
2023/08/26 04:24:19;;;;;;;8.35;4.15;;;;;;;20.08;64.89;96400.91;5052949;28;20059;-69
2023/08/26 04:26:46;;;;;;;5.97;4.03;;;;;;;20.38;63.87;96403.91;5053009;28;20131;-70
2023/08/26 04:29:14;;;;;;;6.50;3.92;;;;;;;20.71;63.04;96398.66;5052870;28;20040;-69
2023/08/26 04:31:41;;;;;;;8.48;4.80;;;;;;;21.11;61.73;96409.66;5053090;28;20049;-70
2023/08/26 04:34:09;;;;;;;6.72;4.30;;;;;;;21.52;61.45;96410.63;5052979;28;20045;-69
2023/08/26 04:36:36;;;;;;;8.05;3.95;;;;;;;21.92;59.77;96409.09;5052708;28;20056;-70
2023/08/26 04:39:10;;;;;;;8.15;3.88;;;;;;;22.27;58.64;96419.47;5052795;28;20060;-69
2023/08/26 04:41:38;;;;;;;5.07;3.80;;;;;;;22.59;58.02;96419.28;5052800;28;20491;-70
2023/08/26 04:44:07;;;;;;;6.47;4.00;;;;;;;22.93;57.16;96415.41;5053056;28;20103;-69
2023/08/26 04:46:34;;;;;;;4.15;3.75;;;;;;;23.30;56.06;96424.53;5052753;28;20109;-70
2023/08/26 04:49:02;;;;;;;3.97;3.58;;;;;;;23.62;55.19;96422.56;5052830;28;20056;-69
2023/08/26 04:51:31;;;;;;;6.53;4.13;;;;;;;23.95;54.84;96415.03;5052699;28;20513;-70
2023/08/26 04:53:58;;;;;;;4.22;3.53;;;;;;;24.33;54.01;96417.72;5052708;28;20099;-69
2023/08/26 04:56:25;;;;;;;4.72;3.95;;;;;;;24.74;52.37;96420.00;5052757;28;20063;-70
2023/08/26 04:58:52;;;;;;;4.75;3.78;;;;;;;25.14;52.22;96421.59;5052666;28;20049;-69
2023/08/26 05:01:20;;;;;;;3.78;3.38;;;;;;;25.49;52.13;96422.53;5052664;28;20053;-70
2023/08/26 05:03:47;;;;;;;7.47;3.70;;;;;;;25.83;51.04;96420.97;5052581;28;20083;-70
2023/08/26 05:06:14;;;;;;;3.85;3.55;;;;;;;26.06;51.43;96420.44;5052627;28;20103;-69
2023/08/26 05:08:43;;;;;;;4.55;3.65;;;;;;;26.02;51.24;96417.25;5053027;28;20061;-69
2023/08/26 05:11:10;;;;;;;5.43;3.60;;;;;;;25.86;51.63;96424.16;5052492;28;20049;-69
2023/08/26 05:13:37;;;;;;;4.70;3.92;;;;;;;25.70;51.94;96418.69;5052504;28;20139;-69
2023/08/26 05:16:05;;;;;;;4.50;4.10;;;;;;;25.48;51.66;96420.88;5056177;28;20428;-70
2023/08/26 05:18:32;;;;;;;5.13;3.55;;;;;;;25.28;51.67;96421.03;5056255;28;20096;-69
2023/08/26 05:21:00;;;;;;;4.15;3.75;;;;;;;25.13;53.01;96422.59;5056155;28;20601;-69
2023/08/26 05:23:28;;;;;;;6.70;3.80;;;;;;;25.06;52.31;96419.69;5056210;28;20049;-69
2023/08/26 05:25:56;;;;;;;5.90;3.80;;;;;;;25.44;52.04;96424.88;5056107;28;20235;-69
2023/08/26 05:28:23;;;;;;;6.95;3.90;;;;;;;26.04;50.05;96420.63;5056176;28;20053;-70
2023/08/26 05:30:51;;;;;;;5.20;4.07;;;;;;;26.68;49.21;96421.22;5056068;28;20068;-70
2023/08/26 05:33:18;;;;;;;6.95;4.32;;;;;;;27.41;48.33;96420.66;5056329;28;20053;-70
2023/08/26 05:35:46;;;;;;;4.32;3.78;;;;;;;28.06;45.73;96421.63;5056117;28;20501;-70
2023/08/26 05:38:13;;;;;;;7.20;3.92;;;;;;;28.59;44.20;96431.06;5055784;28;20053;-70
2023/08/26 05:40:40;;;;;;;6.55;3.80;;;;;;;29.11;45.08;96431.47;5055883;28;20106;-70
2023/08/26 05:43:09;;;;;;;4.43;3.58;;;;;;;29.63;44.84;96420.97;5055917;28;20049;-70
2023/08/26 05:45:36;;;;;;;4.70;4.30;;;;;;;30.13;43.71;96431.28;5055813;28;20055;-70
2023/08/26 05:48:03;;;;;;;6.68;3.70;;;;;;;30.50;42.42;96434.06;5055660;28;20045;-70
2023/08/26 05:50:32;;;;;;;5.40;3.70;;;;;;;30.88;42.01;96435.81;5055685;28;20077;-70
2023/08/26 05:52:58;;;;;;;7.50;3.70;;;;;;;31.21;40.54;96429.91;5055766;28;20071;-70
2023/08/26 05:55:27;;;;;;;6.90;4.07;;;;;;;31.52;39.27;96427.94;5055689;28;20053;-70
2023/08/26 05:57:54;;;;;;;6.63;3.63;;;;;;;31.75;38.42;96435.81;5055510;28;20135;-70
2023/08/26 06:00:25;;;;;;;4.50;4.10;;;;;;;32.00;37.82;96438.09;5055625;28;20446;-70
2023/08/26 06:02:52;;;;;;;5.50;4.15;;;;;;;32.30;37.79;96433.50;5055526;28;20045;-70
2023/08/26 06:05:19;;;;;;;5.13;4.35;;;;;;;32.50;36.16;96425.50;5055473;28;20051;-70
2023/08/26 06:07:47;;;;;;;9.32;4.55;;;;;;;32.72;35.54;96428.91;5055282;28;20049;-70
2023/08/26 06:10:15;;;;;;;4.65;4.15;;;;;;;32.81;35.00;96431.44;5055315;28;20124;-69
2023/08/26 06:12:42;;;;;;;6.70;4.30;;;;;;;32.96;34.27;96432.09;5055321;28;20045;-69
2023/08/26 06:15:10;;;;;;;5.32;4.68;;;;;;;33.23;33.83;96444.94;5055411;28;20052;-69
2023/08/26 06:17:41;;;;;;;9.02;4.95;;;;;;;33.40;33.86;96443.50;5055268;28;20399;-69
2023/08/26 06:20:09;;;;;;;5.20;4.35;;;;;;;33.63;33.87;96439.59;5054946;28;20118;-69
2023/08/26 06:22:36;;;;;;;7.68;4.47;;;;;;;33.87;33.04;96442.69;5055089;28;20052;-69
2023/08/26 06:25:03;;;;;;;6.65;4.70;;;;;;;34.01;32.02;96448.91;5055177;28;20053;-69
2023/08/26 06:27:30;;;;;;;8.25;4.13;;;;;;;34.04;32.56;96447.69;5054286;28;20053;-69
2023/08/26 06:30:02;;;;;;;9.02;4.20;;;;;;;34.23;31.97;96453.31;5054992;28;20049;-69
2023/08/26 06:32:29;;;;;;;5.88;4.13;;;;;;;34.44;31.42;96451.38;5054980;28;20051;-69
2023/08/26 06:34:58;;;;;;;6.07;4.60;;;;;;;34.46;31.04;96452.00;5055124;28;20041;-69
2023/08/26 06:37:25;;;;;;;5.93;4.00;;;;;;;34.65;30.98;96451.13;5054793;28;20049;-69
2023/08/26 06:39:52;;;;;;;5.50;4.15;;;;;;;34.76;29.83;96457.75;5055177;28;20053;-69
2023/08/26 06:42:19;;;;;;;6.38;4.38;;;;;;;34.91;30.80;96462.91;5054675;28;20053;-69
2023/08/26 06:44:47;;;;;;;8.25;4.10;;;;;;;35.03;30.04;96459.50;5054697;28;20665;-69
2023/08/26 06:47:14;;;;;;;9.32;4.82;;;;;;;35.22;28.79;96460.50;5054594;28;20140;-69
2023/08/26 06:49:41;;;;;;;10.10;3.95;;;;;;;35.35;28.12;96465.00;5054710;28;20067;-69
2023/08/26 06:52:10;;;;;;;7.30;4.00;;;;;;;35.46;27.52;96463.47;5054397;28;20103;-69
2023/08/26 06:54:39;;;;;;;7.28;4.78;;;;;;;35.48;28.03;96461.34;5054625;28;20057;-69
2023/08/26 06:57:06;;;;;;;6.93;4.43;;;;;;;35.47;27.49;96459.69;5054302;28;20128;-69
2023/08/26 06:59:36;;;;;;;7.35;3.90;;;;;;;35.49;26.92;96459.47;5054554;28;20049;-68
2023/08/26 07:02:05;;;;;;;8.43;4.25;;;;;;;35.60;27.29;96463.38;5054290;28;20060;-69
2023/08/26 07:04:33;;;;;;;8.20;4.28;;;;;;;35.51;25.93;96462.78;5054332;28;20102;-69
2023/08/26 07:07:00;;;;;;;7.68;4.22;;;;;;;35.56;26.21;96462.13;5054125;28;20076;-70
2023/08/26 07:09:29;;;;;;;6.38;3.53;;;;;;;35.63;26.00;96468.34;5054300;28;20081;-68
2023/08/26 07:11:56;;;;;;;7.55;3.85;;;;;;;35.73;25.47;96467.91;5054245;28;20049;-68
2023/08/26 07:14:24;;;;;;;8.85;4.25;;;;;;;35.71;25.02;96468.13;5054234;28;20454;-69
2023/08/26 07:16:52;;;;;;;5.03;4.15;;;;;;;35.72;25.03;96474.41;5053922;28;20483;-68
2023/08/26 07:19:19;;;;;;;7.82;4.03;;;;;;;35.72;24.92;96477.94;5053903;28;20048;-68
2023/08/26 07:21:47;;;;;;;5.43;3.88;;;;;;;35.83;25.19;96479.13;5053889;28;20057;-69
2023/08/26 07:24:15;;;;;;;8.32;4.07;;;;;;;35.97;25.08;96465.41;5053903;28;20055;-69
2023/08/26 07:26:44;;;;;;;7.63;3.80;;;;;;;36.09;24.67;96473.66;5053980;28;20048;-69
2023/08/26 07:29:11;;;;;;;8.77;4.25;;;;;;;36.06;24.93;96468.66;5053909;28;20045;-69
2023/08/26 07:31:38;;;;;;;6.38;4.05;;;;;;;36.06;24.14;96465.94;5053836;28;20045;-69
2023/08/26 07:34:07;;;;;;;10.52;4.28;;;;;;;36.29;23.74;96466.16;5053702;28;20052;-69
2023/08/26 07:36:34;;;;;;;7.25;4.15;;;;;;;36.41;23.71;96468.13;5053721;28;20495;-69
2023/08/26 07:39:03;;;;;;;6.90;3.97;;;;;;;36.43;23.55;96471.47;5052679;28;20084;-69
2023/08/26 07:41:30;;;;;;;6.03;4.07;;;;;;;36.31;25.08;96473.25;5053618;28;20045;-69
2023/08/26 07:44:00;;;;;;;7.68;4.47;;;;;;;36.48;24.65;96463.44;5053441;28;20379;-68
2023/08/26 07:46:27;;;;;;;7.10;4.38;;;;;;;36.59;23.50;96471.94;5053496;28;20053;-69
2023/08/26 07:48:54;;;;;;;11.20;4.35;;;;;;;36.03;23.77;96461.78;5053470;28;20570;-69
2023/08/26 07:51:21;;;;;;;10.70;4.38;;;;;;;35.86;23.83;96475.94;5053516;28;20071;-69
2023/08/26 07:53:49;;;;;;;10.18;4.10;;;;;;;35.93;24.48;96473.16;5053389;28;20059;-69
2023/08/26 07:56:17;;;;;;;6.82;3.95;;;;;;;35.63;24.30;96479.22;5053318;28;20052;-68
2023/08/26 07:58:45;;;;;;;6.22;4.50;;;;;;;35.51;24.98;96468.22;5053307;28;20044;-68
2023/08/26 08:01:15;;;;;;;6.30;4.30;;;;;;;35.21;24.13;96468.88;5053316;28;20049;-68
2023/08/26 08:03:42;;;;;;;5.00;4.20;;;;;;;34.57;25.70;96472.19;5053148;28;20490;-68
2023/08/26 08:06:10;;;;;;;6.78;4.38;;;;;;;34.59;26.56;96465.53;5053158;28;20055;-69
2023/08/26 08:08:37;;;;;;;7.15;3.83;;;;;;;34.25;26.17;96470.22;5053187;28;20048;-69
2023/08/26 08:11:05;;;;;;;11.15;4.68;;;;;;;33.95;26.60;96466.03;5053171;28;20045;-69
2023/08/26 08:13:32;;;;;;;12.05;4.13;;;;;;;34.23;26.66;96456.88;5053139;28;20098;-69
2023/08/26 08:15:59;;;;;;;11.77;4.22;;;;;;;34.58;26.14;96468.47;5053089;28;20053;-68
2023/08/26 08:18:28;;;;;;;5.95;4.63;;;;;;;34.62;26.37;96464.25;5053067;28;20122;-68
2023/08/26 08:20:56;;;;;;;8.57;4.45;;;;;;;34.44;26.14;96460.34;5052931;28;20087;-69
2023/08/26 08:23:24;;;;;;;7.07;4.30;;;;;;;34.23;26.67;96465.00;5053221;28;20041;-68
2023/08/26 08:25:51;;;;;;;4.97;3.85;;;;;;;34.15;26.64;96468.78;5053132;28;20095;-68
2023/08/26 08:28:19;;;;;;;6.47;4.50;;;;;;;33.81;26.83;96458.97;5053162;28;20095;-68
2023/08/26 08:30:46;;;;;;;8.30;4.70;;;;;;;33.41;27.14;96466.00;5053062;28;20136;-68
2023/08/26 08:33:14;;;;;;;9.80;4.13;;;;;;;33.06;27.15;96458.00;5053172;28;20099;-69
2023/08/26 08:35:43;;;;;;;9.73;4.53;;;;;;;33.15;27.94;96463.03;5052991;28;20128;-69
2023/08/26 08:38:11;;;;;;;12.95;4.30;;;;;;;33.35;28.26;96456.00;5052845;28;20056;-68
2023/08/26 08:40:38;;;;;;;8.30;4.15;;;;;;;33.59;27.64;96449.16;5052865;28;20052;-68
2023/08/26 08:43:07;;;;;;;5.20;3.78;;;;;;;33.54;27.18;96451.63;5052868;28;20045;-69
2023/08/26 08:45:35;;;;;;;5.80;4.20;;;;;;;33.76;28.77;96452.28;5053046;28;20052;-68
2023/08/26 08:48:03;;;;;;;8.57;4.22;;;;;;;34.00;28.18;96447.25;5052754;28;20479;-68
2023/08/26 08:50:31;;;;;;;5.30;3.88;;;;;;;34.26;27.96;96440.16;5055313;28;20056;-69
2023/08/26 08:53:02;;;;;;;7.15;3.95;;;;;;;34.37;27.40;96441.38;5056788;28;20049;-68
2023/08/26 08:55:30;;;;;;;7.28;4.35;;;;;;;34.60;26.90;96441.91;5056739;28;20056;-69
2023/08/26 08:57:59;;;;;;;7.97;4.63;;;;;;;34.73;26.84;96439.19;5056659;28;20056;-68
2023/08/26 09:00:27;;;;;;;7.05;3.72;;;;;;;34.99;26.83;96444.69;5056890;28;20080;-69
2023/08/26 09:02:57;;;;;;;4.75;3.67;;;;;;;35.38;25.92;96434.66;5056694;28;20120;-69
2023/08/26 09:05:25;;;;;;;6.15;4.22;;;;;;;35.57;25.31;96436.63;5056785;28;20048;-69
2023/08/26 09:07:53;;;;;;;7.65;4.18;;;;;;;35.25;26.67;96434.75;5056595;28;20491;-69
2023/08/26 09:10:25;;;;;;;6.55;3.83;;;;;;;34.93;25.25;96435.53;5056449;28;20517;-68
2023/08/26 09:12:52;;;;;;;6.25;4.70;;;;;;;34.83;25.56;96430.59;5056507;28;20052;-69
2023/08/26 09:15:21;;;;;;;4.80;3.90;;;;;;;34.58;25.49;96431.28;5056525;28;20056;-68
2023/08/26 09:17:50;;;;;;;5.70;4.22;;;;;;;34.47;26.78;96423.81;5056406;28;20094;-69
2023/08/26 09:20:17;;;;;;;6.27;3.87;;;;;;;34.22;26.59;96419.91;5056142;28;20068;-68
2023/08/26 09:22:45;;;;;;;6.57;4.13;;;;;;;34.18;27.22;96410.53;5056274;28;20380;-68
2023/08/26 09:25:12;;;;;;;5.28;4.28;;;;;;;34.38;26.77;96410.50;5056316;28;20044;-69
2023/08/26 09:27:43;;;;;;;7.00;3.92;;;;;;;34.61;26.93;96411.84;5056144;28;20052;-68
2023/08/26 09:30:12;;;;;;;4.70;4.30;;;;;;;34.88;26.45;96405.50;5056209;28;20045;-68
2023/08/26 09:32:43;;;;;;;7.78;4.15;;;;;;;34.53;25.77;96412.09;5056122;28;20084;-68
2023/08/26 09:35:12;;;;;;;5.55;3.88;;;;;;;34.15;26.22;96410.97;5056116;28;20491;-68
2023/08/26 09:37:42;;;;;;;4.30;3.90;;;;;;;33.99;27.17;96402.22;5055902;28;20132;-68
2023/08/26 09:40:13;;;;;;;11.07;4.32;;;;;;;33.82;27.18;96407.22;5055863;28;20045;-68
2023/08/26 09:42:43;;;;;;;10.93;4.38;;;;;;;33.43;27.59;96400.78;5055958;28;20049;-68
2023/08/26 09:45:12;;;;;;;5.28;3.92;;;;;;;33.26;28.43;96406.59;5056152;28;20060;-68
2023/08/26 09:47:40;;;;;;;7.57;4.50;;;;;;;33.09;27.87;96398.00;5055806;28;20044;-68
2023/08/26 09:50:10;;;;;;;5.43;3.78;;;;;;;33.30;28.93;96401.56;5055716;28;20102;-68
2023/08/26 09:52:45;;;;;;;8.73;4.32;;;;;;;33.52;27.96;96402.22;5055707;28;20419;-68
2023/08/26 09:55:13;;;;;;;6.63;3.83;;;;;;;33.21;28.50;96403.66;5055712;28;20044;-68
2023/08/26 09:57:43;;;;;;;7.72;4.20;;;;;;;33.15;28.66;96397.19;5055464;28;20045;-68
2023/08/26 10:00:12;;;;;;;7.43;4.10;;;;;;;32.85;28.54;96397.50;5055595;28;20073;-69
2023/08/26 10:02:45;;;;;;;6.85;4.30;;;;;;;32.89;29.38;96396.91;5054403;28;20454;-68
2023/08/26 10:05:17;;;;;;;5.00;4.47;;;;;;;33.24;30.09;96389.69;5055463;28;20041;-68
2023/08/26 10:07:48;;;;;;;5.45;4.03;;;;;;;33.67;29.46;96390.38;5055590;28;20053;-69
2023/08/26 10:10:27;;;;;;;6.07;3.85;;;;;;;33.96;27.38;96390.94;5055457;28;20053;-68
2023/08/26 10:13:01;;;;;;;5.80;4.53;;;;;;;34.02;27.32;96382.81;5055358;28;20052;-68
2023/08/26 10:15:32;;;;;;;6.75;3.88;;;;;;;33.83;27.86;96389.91;5055300;28;20348;-68
2023/08/26 10:18:04;;;;;;;5.50;4.50;;;;;;;33.77;28.77;96385.34;5055107;28;20128;-68
2023/08/26 10:20:32;;;;;;;7.55;4.30;;;;;;;33.86;28.63;96380.53;5054971;28;20057;-68
2023/08/26 10:22:59;;;;;;;6.28;4.43;;;;;;;33.64;28.53;96378.91;5055102;28;20132;-68
2023/08/26 10:25:28;;;;;;;7.20;4.63;;;;;;;33.82;28.47;96379.28;5055071;28;20052;-68
2023/08/26 10:27:57;;;;;;;8.77;4.07;;;;;;;34.12;27.92;96374.25;5054989;28;20067;-69
2023/08/26 10:30:25;;;;;;;5.73;4.33;;;;;;;34.19;27.24;96367.97;5054982;28;20091;-68
2023/08/26 10:33:00;;;;;;;4.40;3.65;;;;;;;33.86;28.17;96377.84;5054972;28;20453;-68
2023/08/26 10:35:27;;;;;;;6.05;4.10;;;;;;;33.52;28.53;96372.41;5054856;28;20092;-68
2023/08/26 10:38:10;;;;;;;15.07;4.50;;;;;;;33.50;29.19;96359.06;5054748;28;20380;-68
2023/08/26 10:40:38;;;;;;;4.63;4.00;;;;;;;33.69;28.34;96366.59;5054830;28;20063;-68
2023/08/26 10:43:08;;;;;;;6.63;4.50;;;;;;;33.82;28.71;96360.28;5054770;28;20056;-68
2023/08/26 10:45:46;;;;;;;5.03;4.30;;;;;;;34.11;27.94;96359.00;5054654;28;20446;-68
2023/08/26 10:48:13;;;;;;;6.07;4.25;;;;;;;34.09;27.77;96357.53;5054839;28;20049;-68
2023/08/26 10:50:44;;;;;;;7.47;4.10;;;;;;;34.23;28.34;96353.78;5054509;28;20060;-68
2023/08/26 10:53:16;;;;;;;6.57;4.63;;;;;;;34.63;28.77;96357.34;5054708;28;20055;-68
2023/08/26 10:55:47;;;;;;;9.73;4.55;;;;;;;34.81;27.77;96355.81;5054460;28;20499;-68
2023/08/26 10:58:18;;;;;;;8.43;4.47;;;;;;;34.69;27.00;96350.22;5053428;28;20466;-68
2023/08/26 11:00:48;;;;;;;10.15;5.20;;;;;;;34.58;27.59;96352.56;5054473;28;20048;-68
2023/08/26 11:03:18;;;;;;;5.72;4.15;;;;;;;34.50;26.80;96350.94;5054417;28;20068;-68
2023/08/26 11:05:47;;;;;;;8.65;4.47;;;;;;;34.17;27.19;96343.78;5054339;28;20056;-68
2023/08/26 11:08:15;;;;;;;7.03;4.47;;;;;;;34.21;28.39;96342.28;5054273;28;20049;-68
2023/08/26 11:10:43;;;;;;;6.22;4.50;;;;;;;34.21;27.63;96336.03;5054298;28;20045;-68
2023/08/26 11:13:12;;;;;;;5.47;4.00;;;;;;;33.99;28.25;96331.69;5054100;28;20052;-68
2023/08/26 11:15:42;;;;;;;5.93;4.47;;;;;;;33.87;27.66;96334.25;5054091;28;20053;-69
2023/08/26 11:18:12;;;;;;;5.95;4.43;;;;;;;33.81;29.13;96321.53;5054009;28;20124;-68
2023/08/26 11:20:39;;;;;;;9.93;4.57;;;;;;;33.67;28.25;96319.91;5053744;28;20056;-68
2023/08/26 11:23:09;;;;;;;7.95;4.18;;;;;;;33.75;28.25;96314.22;5053884;28;20075;-68
2023/08/26 11:25:37;;;;;;;5.90;4.57;;;;;;;33.97;28.24;96322.94;5054022;28;20127;-68
2023/08/26 11:28:05;;;;;;;7.75;4.45;;;;;;;33.99;28.11;96320.84;5053854;28;20077;-68
2023/08/26 11:30:38;;;;;;;6.85;4.43;;;;;;;33.98;28.22;96321.06;5053931;28;20045;-68
2023/08/26 11:33:11;;;;;;;14.85;4.97;;;;;;;34.00;28.48;96316.25;5054028;28;20044;-68
2023/08/26 11:35:39;;;;;;;6.15;4.72;;;;;;;34.09;28.00;96311.41;5053747;28;20114;-68
2023/08/26 11:38:08;;;;;;;8.50;4.63;;;;;;;33.87;27.99;96317.97;5053676;28;20049;-68